aviador You're here:

RJOO Decoded Metar

OSAKA in JAPAN
Report Time2015-08-02 22:00:00
UTC Time2015-08-02 22:24:10
Flight Rules vfr VFR
Wind330° at 04 kt
W.Decomp.*RWY 32: 3.8 kt HW 1.2 kt RCW
W.Rank330° ranks 3
Current wind is below 330° avg. (8.2)
Visibility9999 m
Phenomena:N/A
Clouds:N/A
Expected CloudBase > 2,400 ft AGL from Temp-Dew spread
CeilingNone
Temp29°C (ISA +14)
Dew Point23°C (70% RH)
Heat Index32.7°C
QNH1012 hPa
Density Alt2,070 ft
Elevation49 ft
Report Wrong Elevation
Raw Report
METAR RJOO 022200Z 33004KT 300V010 CAVOK 29/23 Q1012 RMK A2990=

Extra information for RJOO:More info

Metar Taf Metar & Taf Last 4 Metars F.Rules Stats Wind Profile Meteogram Temp Stats Airport Information Weather charts Add Link Nearby VenuesMetar ALERT Operation Metar Decoded Social comments